Hlavní strana
METAR-TAF:

METAR-TAF

Letiště :

Cairns, Austrálie

zeměpisná šířka: 16-53S, zeměpisná délka: 145-45E, výška: 3 m

Aktuální stav počasí

Zpráva byla vytvořena před 27 minutami, v 22:30 UTC
Jihojihovýchodní vítr 12 kt
Teplota 20°C
Vlhkost vzduchu 46%
Tlak 1021 hPa
Viditelnost 10 km a více
Žádná oblačnost pod 1500 m, nevyskytují se cumulonimby.

METAR: YBCS 182230Z 15012KT CAVOK 20/08 Q1021 NOSIG

Čas: 08:57 (22:57 UTC)

Předpověď počasí

Zpráva byla vytvořena před 5 hodinami a 48 minutami, v 17:09 UTC
Předpověď platná od 18 v 18 UTC do 19 v 18 UTC
Jihojihovýchodní vítr 8 kt
Viditelnost 10 km a více
Žádná oblačnost pod 1500 m, nevyskytují se cumulonimby.
Od 19 v 0000 UTC
Jihovýchodní vítr 14 kt
Viditelnost 10 km a více
Žádná oblačnost pod 1500 m, nevyskytují se cumulonimby.
Od 19 v 0800 UTC
Jihojihovýchodní vítr 8 kt
Viditelnost 10 km a více
Žádná oblačnost pod 1500 m, nevyskytují se cumulonimby.

TAF: YBCS 181709Z 1818/1918 16008KT CAVOK FM190000 14014KT CAVOK FM190800 16008KT CAVOK

Stav a předpovědi počasí z více než 4 000 letišť (zprávy METAR a TAF).

Červené a žluté tečky na mapě představují dostupné meteorologické stanice.

Když kurzor umístíte na tečku, zobrazí se název stanice.

Pak kliknutím zobrazíte stav a předpověď počasí.

Chcete-li změnit mapu, kliknutím na zelené tlačítko se znaménkem +mapu přiblížíte, kliknutím na zelené tlačítko se znaménkem – mapu oddálíte a kliknutím na zelené šipky přejdete na sousední mapy.


METAR-TAF: